createdAt,value
2022-09-05T00:02:28.704Z,4.45
2022-09-05T00:05:59.984Z,3.80
2022-09-05T00:08:54.880Z,5.15
2022-09-05T00:15:17.722Z,4.72
2022-09-05T00:20:51.060Z,6.15
2022-09-05T00:24:37.157Z,5.82
2022-09-05T00:25:40.819Z,4.03
2022-09-05T00:28:48.545Z,5.00
2022-09-05T00:31:54.176Z,6.22
2022-09-05T00:34:49.474Z,4.93
2022-09-05T00:37:48.412Z,5.47
2022-09-05T00:40:48.494Z,7.22
2022-09-05T00:43:40.278Z,4.90
2022-09-05T00:46:33.672Z,6.55
2022-09-05T00:49:39.377Z,4.70
2022-09-05T00:53:04.991Z,5.95
2022-09-05T00:56:25.741Z,4.63
2022-09-05T00:59:50.915Z,5.82
2022-09-05T01:03:09.707Z,5.50
2022-09-05T01:06:34.314Z,7.05
2022-09-05T01:09:40.294Z,6.93
2022-09-05T01:12:33.370Z,5.32
2022-09-05T01:15:34.501Z,5.40
2022-09-05T01:18:49.754Z,5.10
2022-09-05T01:21:58.683Z,4.60
2022-09-05T01:25:10.239Z,6.43
2022-09-05T01:29:15.047Z,4.95
2022-09-05T01:31:44.590Z,6.53
2022-09-05T01:34:49.311Z,5.28
2022-09-05T01:38:08.851Z,7.30
2022-09-05T01:41:17.885Z,5.60
2022-09-05T01:44:26.602Z,5.85
2022-09-05T01:47:45.520Z,7.07
2022-09-05T01:50:35.421Z,7.00
2022-09-05T01:53:50.472Z,8.48
2022-09-05T01:56:52.847Z,6.30
2022-09-05T02:00:05.575Z,5.55
2022-09-05T02:02:58.825Z,5.88
2022-09-05T02:05:51.056Z,6.63
2022-09-05T02:09:09.957Z,7.68
2022-09-05T02:12:42.055Z,6.50
2022-09-05T02:15:40.696Z,6.25
2022-09-05T02:18:37.283Z,9.43
2022-09-05T02:21:29.214Z,5.85
2022-09-05T02:24:28.409Z,7.23
2022-09-05T02:28:04.525Z,7.38
2022-09-05T02:31:18.691Z,7.32
2022-09-05T02:34:12.744Z,10.35
2022-09-05T02:37:16.637Z,9.88
2022-09-05T02:45:20.772Z,8.27
2022-09-05T02:45:21.363Z,7.85
2022-09-05T02:47:24.653Z,7.38
2022-09-05T02:57:07.825Z,7.85
2022-09-05T02:57:42.315Z,10.68
2022-09-05T02:57:46.252Z,6.88
2022-09-05T03:00:27.431Z,7.63
2022-09-05T03:06:43.685Z,7.78
2022-09-05T03:10:08.053Z,9.23
2022-09-05T03:13:16.575Z,8.85
2022-09-05T03:16:28.301Z,7.80
2022-09-05T03:19:37.784Z,10.32
2022-09-05T03:22:58.645Z,9.20
2022-09-05T03:26:15.020Z,8.60
2022-09-05T03:29:18.559Z,7.00
2022-09-05T03:32:27.499Z,10.95
2022-09-05T03:35:20.386Z,11.32
2022-09-05T03:38:18.769Z,8.40
2022-09-05T03:41:05.834Z,11.73
2022-09-05T03:44:04.153Z,8.50
2022-09-05T03:47:08.463Z,8.82
2022-09-05T03:51:13.971Z,9.15
2022-09-05T03:57:18.177Z,7.20
2022-09-05T03:57:41.628Z,6.60
2022-09-05T04:03:32.943Z,6.80
2022-09-05T04:08:09.822Z,12.63
2022-09-05T04:08:34.191Z,7.55
2022-09-05T04:11:40.067Z,8.57
2022-09-05T04:14:44.507Z,7.05
2022-09-05T04:17:42.839Z,7.68
2022-09-05T04:21:07.646Z,6.90
2022-09-05T04:24:10.454Z,7.78
2022-09-05T04:27:16.474Z,9.25
2022-09-05T04:30:44.903Z,7.88
2022-09-05T04:34:03.098Z,11.88
2022-09-05T04:37:04.584Z,9.90
2022-09-05T04:39:53.970Z,9.73
2022-09-05T04:42:41.589Z,7.72
2022-09-05T04:45:38.266Z,9.77
2022-09-05T04:48:33.103Z,9.27
2022-09-05T04:51:45.191Z,16.23
2022-09-05T04:54:49.887Z,7.90
2022-09-05T04:57:44.504Z,10.23
2022-09-05T05:05:59.772Z,10.10
2022-09-05T05:06:11.906Z,9.65
2022-09-05T05:07:09.518Z,8.48
2022-09-05T05:10:47.604Z,9.40
2022-09-05T05:17:59.390Z,10.85
2022-09-05T05:18:16.108Z,10.32
2022-09-05T05:20:39.914Z,9.82
2022-09-05T05:23:43.399Z,7.68
2022-09-05T05:27:00.472Z,8.90
2022-09-05T05:29:59.159Z,7.82
2022-09-05T05:32:52.490Z,8.48
2022-09-05T05:35:48.513Z,7.85
2022-09-05T05:38:48.298Z,8.38
2022-09-05T05:41:49.397Z,9.55
2022-09-05T05:44:39.232Z,8.80
2022-09-05T05:47:36.658Z,7.43
2022-09-05T05:51:15.166Z,9.35
2022-09-05T05:54:21.750Z,6.90
2022-09-05T05:57:17.108Z,7.82
2022-09-05T06:00:14.803Z,7.47
2022-09-05T06:03:54.919Z,8.55
2022-09-05T06:07:10.027Z,7.63
2022-09-05T06:15:02.809Z,11.52
2022-09-05T06:15:06.530Z,11.30
2022-09-05T06:17:28.026Z,6.05
2022-09-05T06:22:07.671Z,6.97
2022-09-05T06:24:24.241Z,6.72
2022-09-05T06:27:23.115Z,9.85
2022-09-05T06:30:22.687Z,11.50
2022-09-05T06:33:39.012Z,6.22
2022-09-05T06:36:45.696Z,9.18
2022-09-05T06:40:13.966Z,6.57
2022-09-05T06:43:19.031Z,5.80
2022-09-05T06:46:52.961Z,4.85
2022-09-05T06:49:58.664Z,5.53
2022-09-05T06:53:42.907Z,5.32
2022-09-05T06:56:30.222Z,6.63
2022-09-05T06:59:20.121Z,7.63
2022-09-05T07:02:58.276Z,6.03
2022-09-05T07:06:08.771Z,7.60
2022-09-05T07:09:13.128Z,6.30
2022-09-05T07:12:12.790Z,4.75
2022-09-05T07:15:34.708Z,5.57
2022-09-05T07:19:03.253Z,4.57
2022-09-05T07:22:45.893Z,6.65
2022-09-05T07:25:19.891Z,4.28
2022-09-05T07:28:26.013Z,6.93
2022-09-05T07:31:26.361Z,3.67
2022-09-05T07:34:33.114Z,4.63
2022-09-05T07:37:30.889Z,6.35
2022-09-05T07:40:25.767Z,4.85
2022-09-05T07:43:18.980Z,3.53
2022-09-05T07:46:06.852Z,6.00
2022-09-05T07:48:59.659Z,6.68
2022-09-05T07:56:56.490Z,3.33
2022-09-05T07:56:59.940Z,3.33
2022-09-05T07:58:41.390Z,3.72
2022-09-05T08:01:28.625Z,4.15
2022-09-05T08:04:40.906Z,5.15
2022-09-05T08:07:49.878Z,4.03
2022-09-05T08:11:22.306Z,3.88
2022-09-05T08:14:10.459Z,3.25
2022-09-05T08:17:29.475Z,5.60
2022-09-05T08:20:36.460Z,6.15
2022-09-05T08:23:29.814Z,5.15
2022-09-05T08:26:48.130Z,3.50
2022-09-05T08:29:47.048Z,3.53
2022-09-05T08:33:11.200Z,2.40
2022-09-05T08:36:01.618Z,2.40
2022-09-05T08:38:50.815Z,2.03
2022-09-05T08:41:49.373Z,2.95
2022-09-05T08:46:43.899Z,3.20
2022-09-05T08:48:08.459Z,2.10
2022-09-05T08:51:35.422Z,3.75
2022-09-05T08:55:04.354Z,3.17
2022-09-05T08:58:09.698Z,3.17
2022-09-05T09:01:08.306Z,3.47
2022-09-05T09:07:46.997Z,2.05
2022-09-05T09:10:45.244Z,2.55
2022-09-05T09:14:14.899Z,2.65
2022-09-05T09:17:50.318Z,1.75
2022-09-05T09:21:01.645Z,5.43
2022-09-05T09:24:08.244Z,6.25
2022-09-05T09:27:05.598Z,3.42
2022-09-05T09:29:59.523Z,7.25
2022-09-05T09:32:50.179Z,3.78
2022-09-05T09:36:15.599Z,5.05
2022-09-05T09:39:37.259Z,3.70
2022-09-05T09:42:41.353Z,1.92
2022-09-05T09:46:10.289Z,2.22
2022-09-05T09:49:23.074Z,1.65
2022-09-05T09:52:44.721Z,1.48
2022-09-05T09:55:41.440Z,2.20
2022-09-05T09:58:36.569Z,2.33
2022-09-05T10:01:44.567Z,3.90
2022-09-05T10:10:55.575Z,2.83
2022-09-05T10:11:08.798Z,1.40
2022-09-05T10:12:00.901Z,3.17
2022-09-05T10:15:08.568Z,2.30
2022-09-05T10:18:16.531Z,2.50
2022-09-05T10:21:40.416Z,3.03
2022-09-05T10:24:59.848Z,1.58
2022-09-05T10:28:24.164Z,1.48
2022-09-05T10:32:24.594Z,1.83
2022-09-05T10:35:21.092Z,2.58
2022-09-05T10:37:45.296Z,2.90
2022-09-05T10:40:36.341Z,2.72
2022-09-05T10:43:50.983Z,2.03
2022-09-05T10:46:50.591Z,2.50
2022-09-05T10:49:44.690Z,3.58
2022-09-05T10:52:37.504Z,1.88
2022-09-05T10:55:33.172Z,3.10
2022-09-05T11:01:31.030Z,1.35
2022-09-05T11:02:34.890Z,2.08
2022-09-05T11:05:36.195Z,2.88
2022-09-05T11:09:01.056Z,3.50
2022-09-05T11:12:03.549Z,3.70
2022-09-05T11:15:03.922Z,1.42
2022-09-05T11:17:57.139Z,1.85
2022-09-05T11:20:49.212Z,2.58
2022-09-05T11:23:57.084Z,3.55
2022-09-05T11:27:09.652Z,4.78
2022-09-05T11:30:07.451Z,2.13
2022-09-05T11:39:39.543Z,1.45
2022-09-05T11:40:06.815Z,3.05
2022-09-05T11:40:35.377Z,1.77
2022-09-05T11:43:48.903Z,1.55
2022-09-05T11:47:27.051Z,1.30
2022-09-05T11:50:31.897Z,2.30
2022-09-05T11:53:24.949Z,1.13
2022-09-05T11:56:30.552Z,0.93
2022-09-05T12:00:28.168Z,1.45
2022-09-05T12:06:48.000Z,1.55
2022-09-05T12:10:38.495Z,1.30
2022-09-05T12:13:29.369Z,12.07
2022-09-05T12:16:39.877Z,8.38
2022-09-05T12:20:02.095Z,6.30
2022-09-05T12:23:53.721Z,11.55
2022-09-05T12:27:40.234Z,9.30
2022-09-05T12:30:10.015Z,4.72
2022-09-05T12:36:01.854Z,5.13
2022-09-05T12:40:53.677Z,2.45
2022-09-05T12:41:32.021Z,2.25
2022-09-05T12:41:35.459Z,3.70
2022-09-05T12:44:37.558Z,2.20
2022-09-05T12:46:26.290Z,1.52
2022-09-05T12:49:23.952Z,2.05
2022-09-05T12:52:42.449Z,2.10
2022-09-05T12:55:37.994Z,1.20
2022-09-05T13:02:57.875Z,1.80
2022-09-05T13:03:09.277Z,2.22
2022-09-05T13:05:02.372Z,1.10
2022-09-05T13:07:56.260Z,1.63
2022-09-05T13:14:50.427Z,2.47
2022-09-05T13:14:58.897Z,2.00
2022-09-05T13:17:43.079Z,2.00
2022-09-05T13:20:36.504Z,1.73
2022-09-05T13:23:26.926Z,2.10
2022-09-05T13:26:23.844Z,2.03
2022-09-05T13:29:18.079Z,1.73
2022-09-05T13:37:58.803Z,3.15
2022-09-05T13:38:12.462Z,3.50
2022-09-05T13:39:04.309Z,2.05
2022-09-05T13:42:01.514Z,1.85
2022-09-05T13:44:53.875Z,5.95
2022-09-05T13:48:18.654Z,8.10
2022-09-05T13:51:37.165Z,2.28
2022-09-05T13:54:50.850Z,2.08
2022-09-05T13:57:41.418Z,2.10
2022-09-05T14:00:38.094Z,3.15
2022-09-05T14:03:55.652Z,1.20
2022-09-05T14:10:33.804Z,3.17
2022-09-05T14:13:42.133Z,1.42
2022-09-05T14:16:41.967Z,1.77
2022-09-05T14:20:02.340Z,10.93
2022-09-05T14:23:08.739Z,1.73
2022-09-05T14:26:04.326Z,1.67
2022-09-05T14:29:14.296Z,3.78
2022-09-05T14:37:36.803Z,3.53
2022-09-05T14:37:41.895Z,2.88
2022-09-05T14:38:54.151Z,3.22
2022-09-05T14:42:21.263Z,3.20
2022-09-05T14:45:23.519Z,1.83
2022-09-05T14:48:20.667Z,2.90
2022-09-05T14:51:25.368Z,1.63
2022-09-05T15:02:51.877Z,3.25
2022-09-05T15:02:53.746Z,1.88
2022-09-05T15:07:28.669Z,1.63
2022-09-05T15:12:18.265Z,1.70
2022-09-05T15:13:34.607Z,4.53
2022-09-05T15:16:24.073Z,3.55
2022-09-05T15:20:06.832Z,3.22
2022-09-05T15:22:57.616Z,1.83
2022-09-05T15:25:58.467Z,2.97
2022-09-05T15:28:51.412Z,2.63
2022-09-05T15:32:23.719Z,1.70
2022-09-05T15:38:25.009Z,1.63
2022-09-05T15:41:19.512Z,4.90
2022-09-05T15:44:13.246Z,1.42
2022-09-05T15:47:05.109Z,2.53
2022-09-05T15:50:04.853Z,2.97
2022-09-05T15:52:55.592Z,3.30
2022-09-05T15:55:51.766Z,2.60
2022-09-05T15:58:54.714Z,3.30
2022-09-05T16:02:00.237Z,1.95
2022-09-05T16:10:30.659Z,4.10
2022-09-05T16:10:38.384Z,2.80
2022-09-05T16:16:12.300Z,4.05
2022-09-05T16:23:14.997Z,2.45
2022-09-05T16:23:17.445Z,2.58
2022-09-05T16:24:59.024Z,2.13
2022-09-05T16:27:53.076Z,2.72
2022-09-05T16:30:40.617Z,5.75
2022-09-05T16:33:34.611Z,2.08
2022-09-05T16:36:33.672Z,3.78
2022-09-05T16:39:27.990Z,4.18
2022-09-05T16:42:47.027Z,4.80
2022-09-05T16:46:05.686Z,2.58
2022-09-05T16:49:12.146Z,3.83
2022-09-05T16:52:06.447Z,4.43
2022-09-05T16:55:29.386Z,2.28
2022-09-05T16:58:22.600Z,2.53
2022-09-05T17:01:44.777Z,4.55
2022-09-05T17:05:06.807Z,5.15
2022-09-05T17:08:15.294Z,2.40
2022-09-05T17:11:12.103Z,3.90
2022-09-05T17:14:15.401Z,4.80
2022-09-05T17:18:18.156Z,5.50
2022-09-05T17:20:23.757Z,6.45
2022-09-05T17:28:15.026Z,3.65
2022-09-05T17:29:44.142Z,6.15
2022-09-05T17:32:59.922Z,7.10
2022-09-05T17:36:08.519Z,6.47
2022-09-05T17:39:15.215Z,7.40
2022-09-05T17:42:32.207Z,3.70
2022-09-05T17:45:29.893Z,9.00
2022-09-05T17:48:46.215Z,2.80
2022-09-05T17:51:51.273Z,5.80
2022-09-05T17:54:50.197Z,4.95
2022-09-05T17:57:39.267Z,3.17
2022-09-05T18:00:48.815Z,2.30
2022-09-05T18:03:42.522Z,5.95
2022-09-05T18:06:39.351Z,6.32
2022-09-05T18:09:48.206Z,4.55
2022-09-05T18:13:31.050Z,4.45
2022-09-05T18:15:53.363Z,3.75
2022-09-05T18:19:28.420Z,2.58
2022-09-05T18:21:56.244Z,3.45
2022-09-05T18:24:53.231Z,4.18
2022-09-05T18:28:04.708Z,3.92
2022-09-05T18:30:54.671Z,4.82
2022-09-05T18:34:15.858Z,3.10
2022-09-05T18:37:41.382Z,5.85
2022-09-05T18:40:37.465Z,3.90
2022-09-05T18:44:12.153Z,3.20
2022-09-05T18:46:57.286Z,5.18
2022-09-05T18:50:24.786Z,4.47
2022-09-05T18:53:08.955Z,6.88
2022-09-05T18:56:21.050Z,4.18
2022-09-05T18:59:15.448Z,4.07
2022-09-05T19:02:24.984Z,3.05
2022-09-05T19:05:28.588Z,5.47
2022-09-05T19:08:55.173Z,4.95
2022-09-05T19:11:53.910Z,6.13
2022-09-05T19:14:53.496Z,4.38
2022-09-05T19:17:48.422Z,4.93
2022-09-05T19:21:13.245Z,6.68
2022-09-05T19:24:11.660Z,4.93
2022-09-05T19:28:39.075Z,4.82
2022-09-05T19:36:50.269Z,6.53
2022-09-05T19:36:54.776Z,5.22
2022-09-05T19:37:12.346Z,4.13
2022-09-05T19:43:29.743Z,5.13
2022-09-05T19:47:40.834Z,6.75
2022-09-05T19:47:49.092Z,5.03
2022-09-05T19:49:27.121Z,4.07
2022-09-05T19:52:16.457Z,6.65
2022-09-05T19:55:15.860Z,5.05
2022-09-05T19:58:19.237Z,4.95
2022-09-05T20:01:20.043Z,4.72
2022-09-05T20:04:19.150Z,4.85
2022-09-05T20:07:19.093Z,5.25
2022-09-05T20:10:22.466Z,5.82
2022-09-05T20:13:28.505Z,5.80
2022-09-05T20:16:15.798Z,6.40
2022-09-05T20:19:06.744Z,7.45
2022-09-05T20:21:57.030Z,8.20
2022-09-05T20:24:50.698Z,6.20
2022-09-05T20:27:38.696Z,5.10
2022-09-05T20:30:34.770Z,3.95
2022-09-05T20:33:39.086Z,5.30
2022-09-05T20:43:08.010Z,5.10
2022-09-05T20:43:21.351Z,6.05
2022-09-05T20:43:22.467Z,4.93
2022-09-05T20:48:48.936Z,7.28
2022-09-05T20:54:13.817Z,6.57
2022-09-05T20:54:22.766Z,5.68
2022-09-05T20:56:07.044Z,8.43
2022-09-05T20:58:58.592Z,10.90
2022-09-05T21:01:59.336Z,6.80
2022-09-05T21:05:21.120Z,7.35
2022-09-05T21:08:16.473Z,4.63
2022-09-05T21:11:06.198Z,7.97
2022-09-05T21:14:01.386Z,4.65
2022-09-05T21:17:14.760Z,12.10
2022-09-05T21:20:13.804Z,5.60
2022-09-05T21:23:40.911Z,7.30
2022-09-05T21:26:29.487Z,4.28
2022-09-05T21:29:27.360Z,5.90
2022-09-05T21:32:20.783Z,9.13
2022-09-05T21:35:34.610Z,9.52
2022-09-05T21:38:18.542Z,3.90
2022-09-05T21:41:19.916Z,7.40
2022-09-05T21:47:35.346Z,5.20
2022-09-05T21:47:48.801Z,6.72
2022-09-05T21:50:32.100Z,5.20
2022-09-05T21:57:12.832Z,5.23
2022-09-05T21:59:24.254Z,7.40
2022-09-05T22:00:10.586Z,7.07
2022-09-05T22:02:58.662Z,6.15
2022-09-05T22:05:45.816Z,6.32
2022-09-05T22:08:33.068Z,4.65
2022-09-05T22:11:20.594Z,5.15
2022-09-05T22:14:09.188Z,4.22
2022-09-05T22:16:58.248Z,5.70
2022-09-05T22:19:47.044Z,7.68
2022-09-05T22:22:38.051Z,6.15
2022-09-05T22:25:28.638Z,6.93
2022-09-05T22:28:21.098Z,8.13
2022-09-05T22:31:19.731Z,7.85
2022-09-05T22:34:07.045Z,7.55
2022-09-05T22:36:56.864Z,7.40
2022-09-05T22:39:44.680Z,5.03
2022-09-05T22:42:31.829Z,3.95
2022-09-05T22:45:19.076Z,5.75
2022-09-05T22:48:11.905Z,8.10
2022-09-05T22:50:59.150Z,7.85
2022-09-05T22:53:46.260Z,8.60
2022-09-05T22:56:39.087Z,6.22
2022-09-05T22:59:26.184Z,5.82
2022-09-05T23:02:13.296Z,6.38
2022-09-05T23:05:03.378Z,4.53
2022-09-05T23:07:50.500Z,7.05
2022-09-05T23:10:37.853Z,8.02
2022-09-05T23:13:25.076Z,7.47
2022-09-05T23:16:12.756Z,5.35
2022-09-05T23:19:08.126Z,6.50
2022-09-05T23:21:57.638Z,7.18
2022-09-05T23:24:44.787Z,8.52
2022-09-05T23:27:36.799Z,5.00
2022-09-05T23:30:23.966Z,6.35
2022-09-05T23:33:11.058Z,7.07
2022-09-05T23:36:14.862Z,5.70
2022-09-05T23:39:02.511Z,4.93
2022-09-05T23:41:49.644Z,5.57
2022-09-05T23:44:36.763Z,10.45
2022-09-05T23:47:26.257Z,5.00
2022-09-05T23:50:13.917Z,4.68
2022-09-05T23:53:04.272Z,5.93
2022-09-05T23:55:51.448Z,5.13
2022-09-05T23:58:39.013Z,6.13
